createdAt,value
2022-08-21T00:02:25.994Z,17.54
2022-08-21T00:04:57.741Z,17.56
2022-08-21T00:07:29.968Z,17.60
2022-08-21T00:09:59.562Z,17.65
2022-08-21T00:12:28.959Z,17.62
2022-08-21T00:15:01.569Z,17.60
2022-08-21T00:17:30.941Z,17.70
2022-08-21T00:20:00.082Z,17.73
2022-08-21T00:22:29.277Z,17.74
2022-08-21T00:24:58.431Z,17.76
2022-08-21T00:27:27.703Z,17.76
2022-08-21T00:29:57.305Z,17.75
2022-08-21T00:32:29.653Z,17.67
2022-08-21T00:34:59.226Z,17.76
2022-08-21T00:37:28.414Z,17.80
2022-08-21T00:39:59.814Z,17.81
2022-08-21T00:42:31.678Z,17.85
2022-08-21T00:45:01.209Z,17.78
2022-08-21T00:47:31.978Z,17.74
2022-08-21T00:50:01.404Z,17.80
2022-08-21T00:52:36.135Z,17.86
2022-08-21T00:55:09.598Z,17.78
2022-08-21T00:57:47.126Z,17.73
2022-08-21T01:00:32.921Z,17.74
2022-08-21T01:03:09.429Z,17.66
2022-08-21T01:05:40.745Z,17.62
2022-08-21T01:08:15.219Z,17.57
2022-08-21T01:10:44.975Z,17.68
2022-08-21T01:13:19.334Z,17.63
2022-08-21T01:15:55.066Z,17.62
2022-08-21T01:18:26.548Z,17.55
2022-08-21T01:21:09.814Z,17.53
2022-08-21T01:23:45.309Z,17.49
2022-08-21T01:26:17.270Z,17.38
2022-08-21T01:28:54.581Z,17.29
2022-08-21T01:31:28.422Z,17.28
2022-08-21T01:33:58.880Z,17.28
2022-08-21T01:36:29.814Z,17.19
2022-08-21T01:38:59.613Z,17.08
2022-08-21T01:41:28.878Z,17.10
2022-08-21T01:43:58.132Z,17.09
2022-08-21T01:46:27.611Z,16.95
2022-08-21T01:48:56.837Z,16.90
2022-08-21T01:51:26.016Z,16.82
2022-08-21T01:53:56.700Z,16.77
2022-08-21T01:56:27.139Z,16.65
2022-08-21T01:58:56.617Z,16.64
2022-08-21T02:01:26.131Z,16.53
2022-08-21T02:03:55.729Z,16.51
2022-08-21T02:06:24.914Z,16.44
2022-08-21T02:08:55.634Z,16.50
2022-08-21T02:11:25.096Z,16.42
2022-08-21T02:13:54.440Z,16.41
2022-08-21T02:16:23.657Z,16.38
2022-08-21T02:18:53.193Z,16.35
2022-08-21T02:21:22.499Z,16.20
2022-08-21T02:23:51.970Z,16.29
2022-08-21T02:26:22.653Z,16.25
2022-08-21T02:28:52.041Z,16.20
2022-08-21T02:31:21.415Z,16.20
2022-08-21T02:33:50.668Z,16.15
2022-08-21T02:36:20.255Z,16.12
2022-08-21T02:38:50.523Z,16.14
2022-08-21T02:41:23.221Z,16.03
2022-08-21T02:43:52.247Z,15.97
2022-08-21T02:46:22.754Z,15.94
2022-08-21T02:48:52.437Z,15.92
2022-08-21T02:51:23.785Z,15.88
2022-08-21T02:53:53.134Z,15.86
2022-08-21T02:56:24.547Z,15.82
2022-08-21T02:58:58.909Z,15.85
2022-08-21T03:01:28.561Z,15.85
2022-08-21T03:03:57.821Z,15.85
2022-08-21T03:06:26.997Z,15.80
2022-08-21T03:08:56.292Z,15.77
2022-08-21T03:11:27.581Z,15.70
2022-08-21T03:13:56.803Z,15.66
2022-08-21T03:16:26.241Z,15.59
2022-08-21T03:18:55.632Z,15.55
2022-08-21T03:21:24.813Z,15.53
2022-08-21T03:23:55.186Z,15.60
2022-08-21T03:26:26.218Z,15.58
2022-08-21T03:28:58.861Z,15.56
2022-08-21T03:31:31.866Z,15.54
2022-08-21T03:34:01.501Z,15.46
2022-08-21T03:36:30.746Z,15.41
2022-08-21T03:39:00.046Z,15.39
2022-08-21T03:41:29.261Z,15.36
2022-08-21T03:44:00.239Z,15.27
2022-08-21T03:46:29.454Z,15.25
2022-08-21T03:48:58.948Z,15.21
2022-08-21T03:51:28.471Z,15.19
2022-08-21T03:53:57.682Z,15.22
2022-08-21T03:56:26.955Z,15.11
2022-08-21T03:58:56.716Z,15.04
2022-08-21T04:01:27.377Z,14.99
2022-08-21T04:03:56.550Z,15.07
2022-08-21T04:06:27.127Z,15.08
2022-08-21T04:08:56.373Z,15.02
2022-08-21T04:11:25.542Z,15.00
2022-08-21T04:13:54.845Z,14.96
2022-08-21T04:16:24.044Z,15.00
2022-08-21T04:18:54.644Z,14.91
2022-08-21T04:21:24.425Z,14.86
2022-08-21T04:23:55.928Z,14.81
2022-08-21T04:26:26.649Z,14.82
2022-08-21T04:28:57.158Z,14.80
2022-08-21T04:31:26.572Z,14.75
2022-08-21T04:33:58.289Z,14.74
2022-08-21T04:36:28.516Z,14.70
2022-08-21T04:38:57.844Z,14.75
2022-08-21T04:41:27.994Z,14.70
2022-08-21T04:43:57.831Z,14.74
2022-08-21T04:46:27.341Z,14.68
2022-08-21T04:48:58.206Z,14.64
2022-08-21T04:51:32.286Z,14.69
2022-08-21T04:54:08.990Z,14.70
2022-08-21T04:56:42.315Z,14.70
2022-08-21T04:59:17.910Z,14.66
2022-08-21T05:01:48.246Z,14.64
2022-08-21T05:04:24.848Z,14.67
2022-08-21T05:06:56.918Z,14.68
2022-08-21T05:09:27.184Z,14.68
2022-08-21T05:11:57.811Z,14.69
2022-08-21T05:14:28.303Z,14.67
2022-08-21T05:16:57.748Z,14.69
2022-08-21T05:19:28.639Z,14.58
2022-08-21T05:21:58.768Z,14.67
2022-08-21T05:24:27.994Z,14.67
2022-08-21T05:26:57.329Z,14.65
2022-08-21T05:29:26.959Z,14.74
2022-08-21T05:31:56.489Z,14.79
2022-08-21T05:34:27.898Z,14.77
2022-08-21T05:36:57.094Z,14.77
2022-08-21T05:39:26.340Z,14.81
2022-08-21T05:41:55.571Z,14.89
2022-08-21T05:44:24.777Z,14.92
2022-08-21T05:46:56.083Z,14.91
2022-08-21T05:49:25.279Z,14.91
2022-08-21T05:51:55.807Z,14.91
2022-08-21T05:54:25.287Z,14.91
2022-08-21T05:56:54.529Z,14.92
2022-08-21T05:59:23.855Z,14.96
2022-08-21T06:01:53.897Z,15.05
2022-08-21T06:04:23.136Z,15.06
2022-08-21T06:06:54.431Z,15.09
2022-08-21T06:09:25.319Z,15.10
2022-08-21T06:11:54.578Z,15.15
2022-08-21T06:14:23.871Z,15.12
2022-08-21T06:16:53.169Z,15.20
2022-08-21T06:19:22.719Z,15.21
2022-08-21T06:21:51.956Z,15.24
2022-08-21T06:24:21.379Z,15.23
2022-08-21T06:26:52.143Z,15.31
2022-08-21T06:29:22.061Z,15.23
2022-08-21T06:31:52.989Z,15.39
2022-08-21T06:34:22.346Z,15.47
2022-08-21T06:36:51.808Z,15.52
2022-08-21T06:39:25.365Z,15.55
2022-08-21T06:42:01.971Z,15.55
2022-08-21T06:44:33.591Z,15.52
2022-08-21T06:47:02.929Z,15.61
2022-08-21T06:49:32.337Z,15.59
2022-08-21T06:52:02.803Z,15.62
2022-08-21T06:54:32.663Z,15.65
2022-08-21T06:57:06.517Z,15.75
2022-08-21T06:59:36.022Z,15.82
2022-08-21T07:02:05.901Z,15.79
2022-08-21T07:04:35.351Z,15.90
2022-08-21T07:07:07.126Z,15.91
2022-08-21T07:09:36.346Z,16.03
2022-08-21T07:12:07.619Z,16.10
2022-08-21T07:14:36.882Z,16.09
2022-08-21T07:17:06.380Z,16.28
2022-08-21T07:19:35.632Z,16.44
2022-08-21T07:22:05.574Z,16.70
2022-08-21T07:24:34.975Z,16.92
2022-08-21T07:27:09.434Z,17.31
2022-08-21T07:29:40.666Z,17.70
2022-08-21T07:32:10.546Z,18.03
2022-08-21T07:34:39.807Z,18.42
2022-08-21T07:37:10.038Z,18.75
2022-08-21T07:39:39.976Z,19.05
2022-08-21T07:42:09.563Z,19.27
2022-08-21T07:44:40.170Z,19.46
2022-08-21T07:47:10.128Z,19.66
2022-08-21T07:49:39.508Z,19.74
2022-08-21T07:52:09.126Z,19.92
2022-08-21T07:54:38.396Z,20.02
2022-08-21T07:57:07.667Z,20.22
2022-08-21T07:59:40.971Z,20.27
2022-08-21T08:02:10.225Z,20.53
2022-08-21T08:04:50.617Z,20.57
2022-08-21T08:07:20.442Z,20.78
2022-08-21T08:09:49.750Z,20.84
2022-08-21T08:12:19.462Z,21.07
2022-08-21T08:14:52.966Z,21.32
2022-08-21T08:17:24.451Z,21.65
2022-08-21T08:19:53.911Z,21.72
2022-08-21T08:22:26.170Z,21.98
2022-08-21T08:24:59.171Z,22.38
2022-08-21T08:27:28.504Z,22.65
2022-08-21T08:29:59.428Z,22.94
2022-08-21T08:32:32.345Z,23.30
2022-08-21T08:35:01.707Z,23.51
2022-08-21T08:37:34.547Z,23.68
2022-08-21T08:40:05.437Z,23.71
2022-08-21T08:42:38.991Z,23.51
2022-08-21T08:45:13.780Z,23.44
2022-08-21T08:47:47.694Z,23.33
2022-08-21T08:50:22.526Z,23.04
2022-08-21T08:52:58.764Z,23.08
2022-08-21T08:55:35.678Z,23.00
2022-08-21T08:58:05.689Z,22.96
2022-08-21T09:00:36.423Z,22.84
2022-08-21T09:03:06.256Z,22.81
2022-08-21T09:05:56.622Z,22.85
2022-08-21T09:08:49.933Z,22.96
2022-08-21T09:11:30.799Z,23.08
2022-08-21T09:14:16.176Z,23.42
2022-08-21T09:17:05.144Z,23.81
2022-08-21T09:19:58.472Z,23.75
2022-08-21T09:22:43.887Z,23.79
2022-08-21T09:25:22.159Z,23.89
2022-08-21T09:27:53.671Z,23.93
2022-08-21T09:30:30.063Z,24.26
2022-08-21T09:33:01.606Z,24.44
2022-08-21T09:35:30.852Z,24.81
2022-08-21T09:38:06.726Z,24.77
2022-08-21T09:40:41.497Z,24.87
2022-08-21T09:43:21.851Z,24.98
2022-08-21T09:46:04.038Z,25.09
2022-08-21T09:48:48.264Z,25.05
2022-08-21T09:51:21.041Z,25.26
2022-08-21T09:53:53.827Z,25.70
2022-08-21T09:56:48.421Z,26.01
2022-08-21T09:59:22.852Z,26.38
2022-08-21T10:01:53.722Z,26.61
2022-08-21T10:04:30.275Z,26.66
2022-08-21T10:07:10.730Z,26.65
2022-08-21T10:09:40.355Z,26.56
2022-08-21T10:12:24.258Z,26.06
2022-08-21T10:15:08.246Z,26.19
2022-08-21T10:17:47.111Z,26.52
2022-08-21T10:20:26.182Z,26.83
2022-08-21T10:23:09.711Z,27.29
2022-08-21T10:25:50.278Z,27.40
2022-08-21T10:28:35.439Z,27.57
2022-08-21T10:31:14.977Z,27.82
2022-08-21T10:33:54.901Z,27.93
2022-08-21T10:36:36.772Z,28.09
2022-08-21T10:39:36.236Z,28.13
2022-08-21T10:42:33.958Z,28.22
2022-08-21T10:45:23.073Z,28.17
2022-08-21T10:47:58.156Z,28.39
2022-08-21T10:50:37.263Z,28.39
2022-08-21T10:53:32.835Z,28.42
2022-08-21T10:56:14.552Z,28.36
2022-08-21T10:58:53.879Z,28.52
2022-08-21T11:01:29.707Z,28.40
2022-08-21T11:04:13.718Z,28.56
2022-08-21T11:06:54.407Z,28.73
2022-08-21T11:09:28.745Z,29.06
2022-08-21T11:12:11.310Z,29.28
2022-08-21T11:14:49.998Z,29.59
2022-08-21T11:17:26.795Z,29.69
2022-08-21T11:20:04.585Z,29.85
2022-08-21T11:22:43.286Z,30.16
2022-08-21T11:25:22.565Z,30.03
2022-08-21T11:27:58.396Z,30.46
2022-08-21T11:30:40.587Z,30.41
2022-08-21T11:33:28.213Z,30.89
2022-08-21T11:36:05.365Z,31.04
2022-08-21T11:38:41.854Z,31.19
2022-08-21T11:41:27.412Z,31.27
2022-08-21T11:44:11.224Z,31.71
2022-08-21T11:46:51.666Z,31.87
2022-08-21T11:49:41.504Z,31.94
2022-08-21T11:52:19.324Z,31.74
2022-08-21T11:54:55.326Z,31.55
2022-08-21T11:57:31.916Z,31.53
2022-08-21T12:00:08.836Z,31.67
2022-08-21T12:02:54.610Z,31.57
2022-08-21T12:05:33.578Z,31.80
2022-08-21T12:08:08.247Z,31.84
2022-08-21T12:10:41.958Z,32.28
2022-08-21T12:13:40.169Z,31.25
2022-08-21T12:16:16.366Z,31.16
2022-08-21T12:18:45.990Z,31.22
2022-08-21T12:21:28.190Z,31.69
2022-08-21T12:24:18.270Z,31.96
2022-08-21T12:26:54.469Z,32.51
2022-08-21T12:29:31.835Z,32.91
2022-08-21T12:32:06.433Z,33.22
2022-08-21T12:34:40.962Z,33.67
2022-08-21T12:37:32.163Z,33.91
2022-08-21T12:40:04.690Z,33.43
2022-08-21T12:42:44.310Z,33.54
2022-08-21T12:45:25.138Z,33.91
2022-08-21T12:48:02.274Z,34.29
2022-08-21T12:50:38.956Z,34.51
2022-08-21T12:53:20.501Z,34.44
2022-08-21T12:55:50.733Z,33.51
2022-08-21T12:58:21.896Z,32.92
2022-08-21T13:00:58.063Z,32.42
2022-08-21T13:03:27.709Z,31.86
2022-08-21T13:05:57.730Z,31.83
2022-08-21T13:08:29.272Z,31.54
2022-08-21T13:11:15.021Z,30.66
2022-08-21T13:13:50.045Z,30.07
2022-08-21T13:16:28.665Z,29.72
2022-08-21T13:19:06.470Z,29.69
2022-08-21T13:21:42.879Z,29.65
2022-08-21T13:27:24.200Z,29.59
2022-08-21T13:30:10.955Z,29.46
2022-08-21T13:32:47.169Z,28.89
2022-08-21T13:35:20.904Z,28.23
2022-08-21T13:37:53.019Z,27.88
2022-08-21T13:40:26.456Z,27.52
2022-08-21T13:42:56.868Z,27.56
2022-08-21T13:45:32.404Z,27.66
2022-08-21T13:48:06.829Z,27.96
2022-08-21T13:50:40.066Z,28.01
2022-08-21T13:53:23.966Z,28.07
2022-08-21T13:56:00.348Z,28.52
2022-08-21T13:58:49.837Z,28.54
2022-08-21T14:01:28.125Z,28.18
2022-08-21T14:04:07.142Z,28.03
2022-08-21T14:06:39.864Z,28.10
2022-08-21T14:09:25.698Z,28.50
2022-08-21T14:12:23.673Z,28.46
2022-08-21T14:15:01.435Z,27.52
2022-08-21T14:17:40.011Z,26.97
2022-08-21T14:20:20.363Z,26.63
2022-08-21T14:23:14.749Z,26.06
2022-08-21T14:26:07.974Z,25.54
2022-08-21T14:28:42.547Z,25.06
2022-08-21T14:31:21.146Z,25.07
2022-08-21T14:33:51.300Z,24.45
2022-08-21T14:36:24.775Z,24.41
2022-08-21T14:38:54.249Z,24.07
2022-08-21T14:41:28.737Z,23.85
2022-08-21T14:44:08.170Z,23.60
2022-08-21T14:46:56.038Z,23.52
2022-08-21T14:49:30.763Z,23.61
2022-08-21T14:52:01.436Z,23.68
2022-08-21T14:54:33.123Z,23.56
2022-08-21T14:57:08.759Z,23.54
2022-08-21T14:59:40.898Z,23.48
2022-08-21T15:02:19.628Z,23.63
2022-08-21T15:04:48.936Z,24.04
2022-08-21T15:07:28.090Z,24.35
2022-08-21T15:09:57.541Z,24.63
2022-08-21T15:12:27.067Z,25.08
2022-08-21T15:17:10.934Z,25.04
2022-08-21T15:19:43.629Z,25.23
2022-08-21T15:22:19.075Z,25.33
2022-08-21T15:24:56.788Z,25.44
2022-08-21T15:27:26.134Z,25.24
2022-08-21T15:29:55.566Z,25.03
2022-08-21T15:32:30.338Z,24.84
2022-08-21T15:35:00.556Z,24.79
2022-08-21T15:37:32.470Z,24.89
2022-08-21T15:40:01.854Z,24.90
2022-08-21T15:42:31.452Z,24.73
2022-08-21T15:45:01.369Z,24.59
2022-08-21T15:47:36.732Z,24.53
2022-08-21T15:50:09.757Z,24.38
2022-08-21T15:52:41.419Z,24.48
2022-08-21T15:55:12.046Z,24.34
2022-08-21T15:57:58.014Z,24.05
2022-08-21T16:00:33.513Z,23.77
2022-08-21T16:03:08.675Z,23.50
2022-08-21T16:05:40.969Z,23.28
2022-08-21T16:08:11.048Z,23.19
2022-08-21T16:10:41.678Z,22.95
2022-08-21T16:13:18.708Z,22.98
2022-08-21T16:15:53.539Z,22.78
2022-08-21T16:18:26.741Z,22.74
2022-08-21T16:20:55.977Z,22.68
2022-08-21T16:23:25.242Z,22.67
2022-08-21T16:25:54.840Z,22.55
2022-08-21T16:28:24.820Z,22.55
2022-08-21T16:30:54.350Z,22.59
2022-08-21T16:33:36.012Z,22.68
2022-08-21T16:36:08.030Z,22.57
2022-08-21T16:38:38.814Z,22.58
2022-08-21T16:41:13.386Z,22.40
2022-08-21T16:43:44.642Z,22.15
2022-08-21T16:46:16.923Z,22.20
2022-08-21T16:48:47.802Z,22.22
2022-08-21T16:51:18.582Z,22.41
2022-08-21T16:53:47.910Z,22.57
2022-08-21T16:56:18.297Z,22.31
2022-08-21T16:58:50.766Z,22.14
2022-08-21T17:01:25.960Z,22.08
2022-08-21T17:03:56.721Z,22.00
2022-08-21T17:06:28.040Z,21.87
2022-08-21T17:09:01.468Z,21.83
2022-08-21T17:11:37.281Z,21.67
2022-08-21T17:14:11.940Z,21.52
2022-08-21T17:16:45.613Z,21.65
2022-08-21T17:19:17.010Z,21.81
2022-08-21T17:21:46.374Z,21.80
2022-08-21T17:24:15.993Z,21.75
2022-08-21T17:26:47.045Z,21.75
2022-08-21T17:29:17.391Z,21.85
2022-08-21T17:31:47.136Z,21.82
2022-08-21T17:34:18.256Z,21.65
2022-08-21T17:36:47.523Z,21.71
2022-08-21T17:39:22.502Z,21.70
2022-08-21T17:41:58.301Z,21.51
2022-08-21T17:44:27.848Z,21.34
2022-08-21T17:46:57.684Z,21.33
2022-08-21T17:49:30.585Z,21.04
2022-08-21T17:52:00.574Z,21.07
2022-08-21T17:54:30.142Z,21.04
2022-08-21T17:57:00.005Z,20.96
2022-08-21T17:59:29.531Z,20.75
2022-08-21T18:02:01.644Z,20.86
2022-08-21T18:04:32.816Z,20.76
2022-08-21T18:07:02.083Z,20.54
2022-08-21T18:09:31.314Z,20.59
2022-08-21T18:12:01.671Z,20.52
2022-08-21T18:14:36.418Z,20.57
2022-08-21T18:17:10.142Z,20.60
2022-08-21T18:19:41.767Z,20.53
2022-08-21T18:22:18.564Z,20.23
2022-08-21T18:24:47.759Z,20.38
2022-08-21T18:27:17.222Z,20.33
2022-08-21T18:29:47.821Z,20.30
2022-08-21T18:32:31.122Z,20.17
2022-08-21T18:35:05.342Z,20.15
2022-08-21T18:37:34.607Z,20.12
2022-08-21T18:40:05.482Z,20.05
2022-08-21T18:42:39.694Z,20.02
2022-08-21T18:45:15.417Z,19.89
2022-08-21T18:47:49.571Z,19.83
2022-08-21T18:50:26.568Z,19.67
2022-08-21T18:52:56.080Z,19.71
2022-08-21T18:55:27.414Z,19.51
2022-08-21T18:57:58.107Z,19.58
2022-08-21T19:00:31.439Z,19.65
2022-08-21T19:03:05.932Z,19.68
2022-08-21T19:05:39.983Z,19.68
2022-08-21T19:08:09.631Z,19.72
2022-08-21T19:10:43.300Z,19.69
2022-08-21T19:13:20.162Z,19.60
2022-08-21T19:15:53.095Z,19.56
2022-08-21T19:18:28.286Z,19.44
2022-08-21T19:20:59.645Z,19.45
2022-08-21T19:23:30.256Z,19.40
2022-08-21T19:26:02.963Z,19.39
2022-08-21T19:28:36.337Z,19.41
2022-08-21T19:31:16.236Z,19.37
2022-08-21T19:36:40.501Z,19.34
2022-08-21T19:39:12.192Z,19.39
2022-08-21T19:41:47.377Z,19.35
2022-08-21T19:44:24.884Z,19.28
2022-08-21T19:46:58.042Z,19.24
2022-08-21T19:52:22.434Z,19.28
2022-08-21T19:54:54.083Z,19.18
2022-08-21T19:57:23.395Z,19.16
2022-08-21T19:59:53.226Z,19.26
2022-08-21T20:02:25.077Z,19.27
2022-08-21T20:04:55.052Z,19.31
2022-08-21T20:10:15.603Z,19.32
2022-08-21T20:12:48.386Z,19.32
2022-08-21T20:15:23.128Z,19.29
2022-08-21T20:17:53.525Z,19.29
2022-08-21T20:20:23.701Z,19.31
2022-08-21T20:22:54.452Z,19.31
2022-08-21T20:25:26.137Z,19.38
2022-08-21T20:27:55.924Z,19.36
2022-08-21T20:30:25.147Z,19.42
2022-08-21T20:32:55.438Z,19.38
2022-08-21T20:35:25.366Z,19.33
2022-08-21T20:37:58.857Z,19.15
2022-08-21T20:40:49.053Z,19.12
2022-08-21T20:43:20.567Z,19.09
2022-08-21T20:45:51.522Z,18.96
2022-08-21T20:48:27.085Z,18.86
2022-08-21T20:51:06.827Z,18.87
2022-08-21T20:53:46.071Z,18.82
2022-08-21T20:56:24.434Z,18.81
2022-08-21T20:59:03.034Z,18.69
2022-08-21T21:01:34.508Z,18.72
2022-08-21T21:04:19.433Z,18.65
2022-08-21T21:06:51.721Z,18.75
2022-08-21T21:09:40.358Z,18.65
2022-08-21T21:12:18.863Z,18.62
2022-08-21T21:15:02.505Z,18.55
2022-08-21T21:17:43.005Z,18.59
2022-08-21T21:20:18.540Z,18.50
2022-08-21T21:22:54.551Z,18.56
2022-08-21T21:25:39.928Z,18.67
2022-08-21T21:28:18.227Z,18.65
2022-08-21T21:30:52.033Z,18.63
2022-08-21T21:33:28.622Z,18.70
2022-08-21T21:36:12.908Z,18.67
2022-08-21T21:38:53.619Z,18.67
2022-08-21T21:41:35.491Z,18.73
2022-08-21T21:44:21.272Z,18.73
2022-08-21T21:47:02.126Z,18.69
2022-08-21T21:49:57.932Z,18.67
2022-08-21T21:53:01.197Z,18.75
2022-08-21T21:55:47.474Z,18.78
2022-08-21T21:59:08.438Z,18.76
2022-08-21T22:01:48.223Z,18.72
2022-08-21T22:04:28.371Z,18.79
2022-08-21T22:07:09.437Z,18.85
2022-08-21T22:09:47.708Z,18.88
2022-08-21T22:12:49.750Z,18.87
2022-08-21T22:15:28.082Z,18.96
2022-08-21T22:18:03.853Z,19.07
2022-08-21T22:20:41.404Z,18.96
2022-08-21T22:23:17.810Z,19.09
2022-08-21T22:25:52.824Z,19.12
2022-08-21T22:28:27.201Z,19.14
2022-08-21T22:31:18.419Z,19.13
2022-08-21T22:34:05.695Z,18.99
2022-08-21T22:36:44.388Z,19.03
2022-08-21T22:39:35.921Z,18.95
2022-08-21T22:42:13.970Z,18.90
2022-08-21T22:44:53.126Z,18.84
2022-08-21T22:47:33.649Z,18.85
2022-08-21T22:50:06.781Z,18.81
2022-08-21T22:52:38.372Z,18.74
2022-08-21T22:55:25.722Z,18.87
2022-08-21T22:58:11.534Z,18.84
2022-08-21T23:00:54.113Z,18.85
2022-08-21T23:03:32.712Z,18.93
2022-08-21T23:06:12.837Z,18.87
2022-08-21T23:08:44.086Z,18.76
2022-08-21T23:11:17.270Z,18.91
2022-08-21T23:13:52.061Z,18.91
2022-08-21T23:16:43.019Z,18.85
2022-08-21T23:19:50.148Z,18.89
2022-08-21T23:22:43.032Z,18.88
2022-08-21T23:25:39.783Z,18.81
2022-08-21T23:28:19.175Z,18.74
2022-08-21T23:31:02.459Z,18.77
2022-08-21T23:34:01.133Z,18.82
2022-08-21T23:37:09.462Z,18.84
2022-08-21T23:39:58.136Z,18.86
2022-08-21T23:43:04.279Z,18.94
2022-08-21T23:45:48.870Z,18.98
2022-08-21T23:48:32.662Z,19.05
2022-08-21T23:51:09.448Z,19.10
2022-08-21T23:53:58.260Z,19.02
2022-08-21T23:56:47.567Z,19.11
2022-08-21T23:59:28.351Z,19.08
